createdAt,value
2019-01-17T00:05:13.913Z,4.50
2019-01-17T00:10:51.217Z,4.50
2019-01-17T00:16:15.409Z,4.40
2019-01-17T00:21:32.192Z,4.40
2019-01-17T00:27:04.219Z,4.40
2019-01-17T00:32:27.551Z,4.30
2019-01-17T00:37:41.626Z,4.30
2019-01-17T00:43:18.560Z,4.20
2019-01-17T00:48:42.812Z,4.20
2019-01-17T00:54:12.600Z,4.20
2019-01-17T00:59:41.870Z,4.30
2019-01-17T01:05:05.604Z,4.20
2019-01-17T01:10:22.714Z,4.10
2019-01-17T01:15:59.022Z,4.00
2019-01-17T01:21:12.660Z,4.00
2019-01-17T01:26:35.555Z,4.00
2019-01-17T01:32:05.638Z,4.00
2019-01-17T01:37:28.562Z,4.10
2019-01-17T01:42:51.005Z,4.10
2019-01-17T01:48:14.989Z,4.00
2019-01-17T01:53:20.049Z,3.90
2019-01-17T01:58:25.335Z,3.90
2019-01-17T02:03:32.060Z,3.90
2019-01-17T02:08:37.073Z,3.90
2019-01-17T02:13:43.398Z,3.90
2019-01-17T02:18:48.397Z,4.00
2019-01-17T02:23:53.369Z,3.90
2019-01-17T02:28:58.388Z,3.90
2019-01-17T02:34:03.419Z,4.00
2019-01-17T02:39:09.312Z,4.00
2019-01-17T02:44:14.283Z,4.00
2019-01-17T02:49:19.277Z,4.00
2019-01-17T02:54:24.291Z,4.00
2019-01-17T02:59:29.282Z,4.00
2019-01-17T03:04:34.249Z,3.90
2019-01-17T03:09:39.226Z,3.80
2019-01-17T03:14:44.209Z,3.80
2019-01-17T03:19:49.229Z,3.80
2019-01-17T03:24:54.199Z,3.70
2019-01-17T03:29:59.195Z,3.80
2019-01-17T03:35:04.337Z,3.70
2019-01-17T03:40:10.975Z,3.70
2019-01-17T03:45:16.360Z,3.70
2019-01-17T03:50:21.347Z,3.70
2019-01-17T03:55:27.259Z,3.60
2019-01-17T04:00:32.246Z,3.60
2019-01-17T04:05:37.265Z,3.60
2019-01-17T04:10:42.254Z,3.50
2019-01-17T04:15:47.249Z,3.50
2019-01-17T04:20:52.248Z,3.50
2019-01-17T04:25:57.247Z,3.50
2019-01-17T04:31:02.224Z,3.50
2019-01-17T04:36:07.215Z,3.50
2019-01-17T04:41:12.189Z,3.50
2019-01-17T04:46:17.173Z,3.50
2019-01-17T04:51:22.199Z,3.50
2019-01-17T04:56:27.237Z,3.50
2019-01-17T05:01:33.215Z,3.50
2019-01-17T05:06:38.145Z,3.50
2019-01-17T05:11:43.134Z,3.40
2019-01-17T05:16:48.120Z,3.30
2019-01-17T05:21:53.112Z,3.30
2019-01-17T05:26:58.112Z,3.30
2019-01-17T05:32:03.141Z,3.30
2019-01-17T05:37:08.128Z,3.30
2019-01-17T05:42:13.133Z,3.20
2019-01-17T05:47:18.353Z,3.30
2019-01-17T05:52:23.337Z,3.40
2019-01-17T05:57:28.468Z,3.40
2019-01-17T06:02:33.476Z,3.20
2019-01-17T06:07:38.559Z,3.40
2019-01-17T06:12:43.576Z,3.40
2019-01-17T06:17:48.677Z,3.40
2019-01-17T06:22:53.668Z,3.50
2019-01-17T06:27:58.764Z,3.60
2019-01-17T06:33:03.758Z,3.70
2019-01-17T06:38:08.732Z,3.70
2019-01-17T06:43:13.758Z,3.70
2019-01-17T06:48:18.752Z,3.60
2019-01-17T06:53:23.767Z,3.70
2019-01-17T06:58:28.748Z,3.70
2019-01-17T07:03:33.737Z,3.90
2019-01-17T07:08:38.738Z,4.00
2019-01-17T07:13:43.724Z,4.00
2019-01-17T07:18:48.691Z,3.90
2019-01-17T07:23:53.663Z,4.00
2019-01-17T07:28:58.704Z,4.10
2019-01-17T07:34:03.683Z,4.10
2019-01-17T07:39:09.024Z,4.10
2019-01-17T07:44:14.044Z,4.10
2019-01-17T07:49:19.040Z,4.00
2019-01-17T07:54:25.862Z,4.00
2019-01-17T07:59:30.821Z,3.90
2019-01-17T08:04:35.811Z,3.80
2019-01-17T08:09:41.166Z,3.80
2019-01-17T08:14:46.164Z,3.80
2019-01-17T08:19:51.165Z,3.80
2019-01-17T08:24:56.141Z,3.80
2019-01-17T08:30:01.124Z,3.90
2019-01-17T08:35:06.884Z,3.80
2019-01-17T08:40:20.302Z,3.80
2019-01-17T08:45:22.956Z,3.70
2019-01-17T08:50:28.188Z,3.80
2019-01-17T08:55:33.454Z,3.90
2019-01-17T09:00:38.431Z,4.00
2019-01-17T09:05:44.175Z,4.20
2019-01-17T09:10:49.221Z,4.30
2019-01-17T09:15:54.140Z,4.40
2019-01-17T09:20:59.139Z,4.60
2019-01-17T09:26:07.460Z,4.70
2019-01-17T09:31:10.739Z,4.70
2019-01-17T09:36:15.708Z,4.70
2019-01-17T09:41:20.840Z,4.60
2019-01-17T09:46:26.088Z,4.70
2019-01-17T09:51:31.078Z,4.70
2019-01-17T09:56:36.104Z,4.80
2019-01-17T10:01:41.083Z,4.80
2019-01-17T10:06:47.953Z,4.90
2019-01-17T10:11:52.955Z,4.80
2019-01-17T10:17:16.385Z,4.70
2019-01-17T10:22:41.716Z,4.70
2019-01-17T10:28:37.080Z,4.60
2019-01-17T10:34:08.925Z,4.50
2019-01-17T10:39:45.243Z,4.30
2019-01-17T10:45:39.511Z,4.10
2019-01-17T10:51:18.436Z,4.00
2019-01-17T10:56:45.249Z,3.80
2019-01-17T11:02:30.045Z,3.30
2019-01-17T11:07:58.675Z,3.00
2019-01-17T11:13:40.441Z,3.00
2019-01-17T11:19:23.440Z,3.00
2019-01-17T11:25:14.250Z,3.10
2019-01-17T11:31:12.600Z,3.20
2019-01-17T11:36:51.274Z,3.30
2019-01-17T11:42:21.641Z,3.50
2019-01-17T11:48:04.141Z,3.60
2019-01-17T11:53:49.236Z,3.60
2019-01-17T11:59:28.781Z,3.60
2019-01-17T12:04:33.315Z,3.60
2019-01-17T12:09:38.304Z,3.70
2019-01-17T12:14:43.277Z,3.80
2019-01-17T12:19:48.268Z,3.90
2019-01-17T12:24:53.249Z,4.00
2019-01-17T12:29:58.240Z,4.00
2019-01-17T12:35:03.236Z,3.90
2019-01-17T12:40:10.681Z,3.90
2019-01-17T12:45:15.658Z,3.90
2019-01-17T12:50:21.009Z,4.00
2019-01-17T12:55:26.003Z,4.10
2019-01-17T13:00:30.992Z,3.90
2019-01-17T13:05:35.968Z,3.40
2019-01-17T13:10:40.954Z,3.50
2019-01-17T13:15:45.955Z,3.60
2019-01-17T13:20:50.968Z,3.50
2019-01-17T13:25:55.957Z,3.50
2019-01-17T13:31:00.948Z,3.60
2019-01-17T13:36:10.412Z,3.60
2019-01-17T13:41:15.451Z,3.60
2019-01-17T13:46:20.444Z,3.60
2019-01-17T13:51:25.419Z,3.00
2019-01-17T13:56:30.411Z,2.90
2019-01-17T14:01:35.413Z,2.80
2019-01-17T14:06:40.376Z,2.80
2019-01-17T14:11:45.349Z,2.90
2019-01-17T14:16:50.329Z,3.10
2019-01-17T14:21:55.323Z,3.30
2019-01-17T14:27:00.286Z,3.30
2019-01-17T14:32:05.388Z,3.30
2019-01-17T14:37:10.387Z,3.50
2019-01-17T14:42:17.285Z,3.50
2019-01-17T14:47:22.004Z,3.40
2019-01-17T14:52:26.976Z,3.30
2019-01-17T14:57:33.749Z,3.20
2019-01-17T15:02:38.743Z,3.10
2019-01-17T15:07:43.721Z,3.10
2019-01-17T15:12:48.671Z,3.10
2019-01-17T15:17:53.649Z,3.10
2019-01-17T15:22:58.612Z,3.00
2019-01-17T15:28:04.259Z,2.90
2019-01-17T15:33:09.227Z,2.70
2019-01-17T15:38:14.263Z,2.30
2019-01-17T15:43:19.271Z,2.20
2019-01-17T15:48:26.264Z,2.20
2019-01-17T15:53:31.318Z,2.20
2019-01-17T15:58:36.329Z,2.20
2019-01-17T16:03:41.300Z,2.20
2019-01-17T16:08:46.299Z,2.20
2019-01-17T16:13:51.258Z,2.30
2019-01-17T16:18:56.250Z,2.30
2019-01-17T16:24:01.308Z,1.70
2019-01-17T16:29:06.333Z,1.40
2019-01-17T16:34:11.419Z,1.10
2019-01-17T16:39:16.396Z,1.10
2019-01-17T16:44:21.408Z,1.10
2019-01-17T16:49:26.391Z,1.10
2019-01-17T16:54:31.360Z,1.10
2019-01-17T16:59:36.376Z,1.20
2019-01-17T17:04:41.343Z,1.20
2019-01-17T17:09:47.169Z,1.30
2019-01-17T17:14:52.476Z,1.30
2019-01-17T17:19:57.464Z,1.40
2019-01-17T17:25:02.508Z,1.40
2019-01-17T17:30:12.413Z,1.40
2019-01-17T17:35:18.105Z,1.50
2019-01-17T17:40:28.410Z,1.60
2019-01-17T17:45:33.437Z,1.80
2019-01-17T17:50:38.457Z,1.70
2019-01-17T17:55:43.440Z,1.60
2019-01-17T18:11:39.553Z,1.50
2019-01-17T18:16:44.645Z,1.50
2019-01-17T18:21:50.879Z,1.50
2019-01-17T18:26:56.906Z,1.50
2019-01-17T18:32:01.890Z,1.50
2019-01-17T18:37:06.859Z,1.40
2019-01-17T18:42:11.849Z,1.40
2019-01-17T18:47:16.810Z,1.50
2019-01-17T18:52:21.808Z,1.50
2019-01-17T18:57:27.011Z,1.60
2019-01-17T19:02:32.020Z,1.80
2019-01-17T19:07:36.999Z,2.20
2019-01-17T19:12:41.985Z,2.10
2019-01-17T19:17:46.962Z,2.20
2019-01-17T19:22:51.953Z,2.10
2019-01-17T19:27:57.000Z,2.00
2019-01-17T19:33:01.985Z,2.00
2019-01-17T19:38:06.936Z,2.10
2019-01-17T19:43:12.057Z,2.20
2019-01-17T19:48:17.145Z,2.20
2019-01-17T19:53:22.089Z,2.20
2019-01-17T19:58:29.040Z,2.20
2019-01-17T20:03:33.774Z,2.10
2019-01-17T20:08:38.735Z,1.90
2019-01-17T20:13:43.737Z,1.70
2019-01-17T20:18:48.731Z,1.70
2019-01-17T20:23:53.689Z,1.70
2019-01-17T20:28:58.657Z,1.90
2019-01-17T20:34:03.626Z,2.00
2019-01-17T20:39:08.676Z,2.10
2019-01-17T20:44:13.654Z,2.00
2019-01-17T20:49:18.645Z,1.90
2019-01-17T20:54:23.762Z,1.70
2019-01-17T20:59:28.693Z,1.50
2019-01-17T21:04:33.662Z,1.20
2019-01-17T21:09:38.833Z,1.10
2019-01-17T21:14:43.840Z,1.00
2019-01-17T21:19:48.796Z,0.90
2019-01-17T21:24:53.764Z,1.00
2019-01-17T21:29:58.771Z,1.20
2019-01-17T21:35:03.739Z,1.20
2019-01-17T21:40:11.309Z,1.30
2019-01-17T21:45:17.938Z,1.30
2019-01-17T21:50:25.667Z,1.00
2019-01-17T21:55:30.982Z,0.80
2019-01-17T22:00:35.965Z,0.70
2019-01-17T22:05:42.536Z,0.70
2019-01-17T22:10:47.727Z,0.80
2019-01-17T22:15:53.661Z,1.00
2019-01-17T22:20:59.536Z,1.10
2019-01-17T22:26:07.087Z,0.90
2019-01-17T22:31:12.316Z,0.70
2019-01-17T22:36:17.297Z,0.40
2019-01-17T22:41:22.636Z,0.30
2019-01-17T22:46:27.617Z,0.20
2019-01-17T22:51:32.620Z,0.10
2019-01-17T22:56:37.610Z,-0.10
2019-01-17T23:01:43.058Z,-0.20
2019-01-17T23:06:48.940Z,-0.40
2019-01-17T23:11:56.093Z,-0.50
2019-01-17T23:17:01.393Z,-0.50
2019-01-17T23:22:06.802Z,-0.60
2019-01-17T23:27:11.777Z,-0.70
2019-01-17T23:32:16.889Z,-0.70
2019-01-17T23:37:22.787Z,-0.80
2019-01-17T23:42:27.853Z,-0.90
2019-01-17T23:47:32.835Z,-0.90
2019-01-17T23:52:37.823Z,-0.90
2019-01-17T23:57:43.322Z,-0.90
